sensor_id;sensor_type;location;lat;lon;timestamp;P1;durP1;ratioP1;P2;durP2;ratioP2
10335;SDS011;5213;53.548;9.930;2023-04-24T00:01:14;9.07;;;7.93;;
10335;SDS011;5213;53.548;9.930;2023-04-24T00:03:42;8.60;;;7.90;;
10335;SDS011;5213;53.548;9.930;2023-04-24T00:06:08;8.73;;;7.88;;
10335;SDS011;5213;53.548;9.930;2023-04-24T00:08:37;8.85;;;7.80;;
10335;SDS011;5213;53.548;9.930;2023-04-24T00:11:03;8.73;;;7.93;;
10335;SDS011;5213;53.548;9.930;2023-04-24T00:13:29;8.95;;;7.32;;
10335;SDS011;5213;53.548;9.930;2023-04-24T00:15:55;7.78;;;7.07;;
10335;SDS011;5213;53.548;9.930;2023-04-24T00:18:21;8.43;;;7.68;;
10335;SDS011;5213;53.548;9.930;2023-04-24T00:20:47;6.97;;;6.38;;
10335;SDS011;5213;53.548;9.930;2023-04-24T00:23:13;7.13;;;6.53;;
10335;SDS011;5213;53.548;9.930;2023-04-24T00:25:39;7.43;;;6.82;;
10335;SDS011;5213;53.548;9.930;2023-04-24T00:28:05;8.30;;;7.60;;
10335;SDS011;5213;53.548;9.930;2023-04-24T00:30:32;8.68;;;7.90;;
10335;SDS011;5213;53.548;9.930;2023-04-24T00:32:58;8.38;;;7.68;;
10335;SDS011;5213;53.548;9.930;2023-04-24T00:35:24;8.73;;;7.93;;
10335;SDS011;5213;53.548;9.930;2023-04-24T00:37:50;8.45;;;7.63;;
10335;SDS011;5213;53.548;9.930;2023-04-24T00:40:16;8.60;;;7.80;;
10335;SDS011;5213;53.548;9.930;2023-04-24T00:42:42;9.02;;;8.23;;
10335;SDS011;5213;53.548;9.930;2023-04-24T00:45:09;7.72;;;7.13;;
10335;SDS011;5213;53.548;9.930;2023-04-24T00:47:35;8.40;;;7.65;;
10335;SDS011;5213;53.548;9.930;2023-04-24T00:50:04;7.68;;;7.07;;
10335;SDS011;5213;53.548;9.930;2023-04-24T00:52:30;8.00;;;7.35;;
10335;SDS011;5213;53.548;9.930;2023-04-24T00:54:57;8.75;;;7.88;;
10335;SDS011;5213;53.548;9.930;2023-04-24T00:57:24;8.15;;;7.45;;
10335;SDS011;5213;53.548;9.930;2023-04-24T00:59:50;8.38;;;7.68;;
10335;SDS011;5213;53.548;9.930;2023-04-24T01:02:17;8.85;;;8.05;;
10335;SDS011;5213;53.548;9.930;2023-04-24T01:04:43;8.85;;;8.15;;
10335;SDS011;5213;53.548;9.930;2023-04-24T01:07:09;8.70;;;7.85;;
10335;SDS011;5213;53.548;9.930;2023-04-24T01:09:39;7.78;;;6.97;;
10335;SDS011;5213;53.548;9.930;2023-04-24T01:12:06;7.95;;;7.25;;
10335;SDS011;5213;53.548;9.930;2023-04-24T01:14:33;7.28;;;6.70;;
10335;SDS011;5213;53.548;9.930;2023-04-24T01:16:59;8.07;;;7.28;;
10335;SDS011;5213;53.548;9.930;2023-04-24T01:19:25;7.75;;;6.95;;
10335;SDS011;5213;53.548;9.930;2023-04-24T01:21:52;7.68;;;6.97;;
10335;SDS011;5213;53.548;9.930;2023-04-24T01:24:19;7.80;;;7.10;;
10335;SDS011;5213;53.548;9.930;2023-04-24T01:26:46;7.80;;;7.10;;
10335;SDS011;5213;53.548;9.930;2023-04-24T01:29:12;7.90;;;7.25;;
10335;SDS011;5213;53.548;9.930;2023-04-24T01:31:38;7.90;;;7.25;;
10335;SDS011;5213;53.548;9.930;2023-04-24T01:34:05;8.13;;;6.07;;
10335;SDS011;5213;53.548;9.930;2023-04-24T01:36:33;6.43;;;5.85;;
10335;SDS011;5213;53.548;9.930;2023-04-24T01:39:01;6.13;;;5.57;;
10335;SDS011;5213;53.548;9.930;2023-04-24T01:41:28;5.72;;;5.22;;
10335;SDS011;5213;53.548;9.930;2023-04-24T01:43:54;5.60;;;5.13;;
10335;SDS011;5213;53.548;9.930;2023-04-24T01:46:20;5.22;;;4.72;;
10335;SDS011;5213;53.548;9.930;2023-04-24T01:48:46;5.68;;;5.18;;
10335;SDS011;5213;53.548;9.930;2023-04-24T01:51:12;4.85;;;4.45;;
10335;SDS011;5213;53.548;9.930;2023-04-24T01:53:38;7.07;;;4.85;;
10335;SDS011;5213;53.548;9.930;2023-04-24T01:56:04;4.82;;;4.13;;
10335;SDS011;5213;53.548;9.930;2023-04-24T01:58:30;5.00;;;4.50;;
10335;SDS011;5213;53.548;9.930;2023-04-24T02:00:57;4.45;;;4.05;;
10335;SDS011;5213;53.548;9.930;2023-04-24T02:03:24;3.92;;;3.63;;
10335;SDS011;5213;53.548;9.930;2023-04-24T02:05:50;3.65;;;3.35;;
10335;SDS011;5213;53.548;9.930;2023-04-24T02:08:16;3.70;;;3.40;;
10335;SDS011;5213;53.548;9.930;2023-04-24T02:10:42;3.13;;;2.92;;
10335;SDS011;5213;53.548;9.930;2023-04-24T02:13:09;3.10;;;2.90;;
10335;SDS011;5213;53.548;9.930;2023-04-24T02:15:35;3.05;;;2.85;;
10335;SDS011;5213;53.548;9.930;2023-04-24T02:18:01;3.03;;;2.83;;
10335;SDS011;5213;53.548;9.930;2023-04-24T02:20:27;5.30;;;3.38;;
10335;SDS011;5213;53.548;9.930;2023-04-24T02:22:53;3.40;;;3.10;;
10335;SDS011;5213;53.548;9.930;2023-04-24T02:25:20;3.40;;;3.15;;
10335;SDS011;5213;53.548;9.930;2023-04-24T02:27:46;3.13;;;2.92;;
10335;SDS011;5213;53.548;9.930;2023-04-24T02:30:12;2.75;;;2.60;;
10335;SDS011;5213;53.548;9.930;2023-04-24T02:32:38;3.20;;;2.90;;
10335;SDS011;5213;53.548;9.930;2023-04-24T02:35:04;3.40;;;3.20;;
10335;SDS011;5213;53.548;9.930;2023-04-24T02:37:30;3.78;;;3.58;;
10335;SDS011;5213;53.548;9.930;2023-04-24T02:39:56;4.30;;;3.58;;
10335;SDS011;5213;53.548;9.930;2023-04-24T02:42:22;5.15;;;3.97;;
10335;SDS011;5213;53.548;9.930;2023-04-24T02:44:49;4.70;;;3.70;;
10335;SDS011;5213;53.548;9.930;2023-04-24T02:47:16;3.97;;;3.67;;
10335;SDS011;5213;53.548;9.930;2023-04-24T02:49:42;4.25;;;3.85;;
10335;SDS011;5213;53.548;9.930;2023-04-24T02:52:08;4.72;;;4.15;;
10335;SDS011;5213;53.548;9.930;2023-04-24T02:54:34;4.30;;;3.90;;
10335;SDS011;5213;53.548;9.930;2023-04-24T02:57:00;4.85;;;3.50;;
10335;SDS011;5213;53.548;9.930;2023-04-24T02:59:26;5.43;;;3.97;;
10335;SDS011;5213;53.548;9.930;2023-04-24T03:01:53;4.03;;;3.63;;
10335;SDS011;5213;53.548;9.930;2023-04-24T03:04:20;8.13;;;3.85;;
10335;SDS011;5213;53.548;9.930;2023-04-24T03:06:46;4.10;;;3.70;;
10335;SDS011;5213;53.548;9.930;2023-04-24T03:09:13;5.18;;;3.33;;
10335;SDS011;5213;53.548;9.930;2023-04-24T03:11:39;3.50;;;3.30;;
10335;SDS011;5213;53.548;9.930;2023-04-24T03:14:05;3.70;;;3.40;;
10335;SDS011;5213;53.548;9.930;2023-04-24T03:16:31;4.75;;;3.08;;
10335;SDS011;5213;53.548;9.930;2023-04-24T03:18:57;3.75;;;3.45;;
10335;SDS011;5213;53.548;9.930;2023-04-24T03:21:24;3.92;;;3.45;;
10335;SDS011;5213;53.548;9.930;2023-04-24T03:23:51;3.03;;;2.83;;
10335;SDS011;5213;53.548;9.930;2023-04-24T03:26:17;3.55;;;3.35;;
10335;SDS011;5213;53.548;9.930;2023-04-24T03:28:43;3.40;;;3.10;;
10335;SDS011;5213;53.548;9.930;2023-04-24T03:31:09;3.15;;;2.95;;
10335;SDS011;5213;53.548;9.930;2023-04-24T03:33:35;3.70;;;3.40;;
10335;SDS011;5213;53.548;9.930;2023-04-24T03:36:01;3.10;;;2.78;;
10335;SDS011;5213;53.548;9.930;2023-04-24T03:38:27;3.58;;;3.28;;
10335;SDS011;5213;53.548;9.930;2023-04-24T03:40:53;2.88;;;2.67;;
10335;SDS011;5213;53.548;9.930;2023-04-24T03:43:19;3.00;;;2.70;;
10335;SDS011;5213;53.548;9.930;2023-04-24T03:45:45;3.20;;;3.00;;
10335;SDS011;5213;53.548;9.930;2023-04-24T03:48:11;2.97;;;2.78;;
10335;SDS011;5213;53.548;9.930;2023-04-24T03:50:37;2.83;;;2.63;;
10335;SDS011;5213;53.548;9.930;2023-04-24T03:53:03;3.13;;;2.50;;
10335;SDS011;5213;53.548;9.930;2023-04-24T03:55:30;3.33;;;3.08;;
10335;SDS011;5213;53.548;9.930;2023-04-24T03:57:56;4.03;;;2.83;;
10335;SDS011;5213;53.548;9.930;2023-04-24T04:00:22;2.78;;;2.60;;
10335;SDS011;5213;53.548;9.930;2023-04-24T04:02:48;2.83;;;2.60;;
10335;SDS011;5213;53.548;9.930;2023-04-24T04:05:14;2.45;;;2.35;;
10335;SDS011;5213;53.548;9.930;2023-04-24T04:07:40;2.30;;;2.20;;
10335;SDS011;5213;53.548;9.930;2023-04-24T04:10:06;2.40;;;2.28;;
10335;SDS011;5213;53.548;9.930;2023-04-24T04:12:32;2.65;;;2.50;;
10335;SDS011;5213;53.548;9.930;2023-04-24T04:14:58;2.67;;;2.40;;
10335;SDS011;5213;53.548;9.930;2023-04-24T04:17:25;2.53;;;2.40;;
10335;SDS011;5213;53.548;9.930;2023-04-24T04:19:51;2.75;;;2.55;;
10335;SDS011;5213;53.548;9.930;2023-04-24T04:22:17;2.38;;;2.28;;
10335;SDS011;5213;53.548;9.930;2023-04-24T04:24:43;1.98;;;1.90;;
10335;SDS011;5213;53.548;9.930;2023-04-24T04:27:09;2.20;;;2.00;;
10335;SDS011;5213;53.548;9.930;2023-04-24T04:29:36;2.33;;;2.13;;
10335;SDS011;5213;53.548;9.930;2023-04-24T04:32:02;2.05;;;1.95;;
10335;SDS011;5213;53.548;9.930;2023-04-24T04:34:28;2.45;;;2.20;;
10335;SDS011;5213;53.548;9.930;2023-04-24T04:36:54;2.10;;;2.00;;
10335;SDS011;5213;53.548;9.930;2023-04-24T04:39:20;2.60;;;2.40;;
10335;SDS011;5213;53.548;9.930;2023-04-24T04:41:46;3.00;;;2.80;;
10335;SDS011;5213;53.548;9.930;2023-04-24T04:44:14;2.17;;;2.08;;
10335;SDS011;5213;53.548;9.930;2023-04-24T04:46:40;2.17;;;2.08;;
10335;SDS011;5213;53.548;9.930;2023-04-24T04:49:07;2.15;;;1.98;;
10335;SDS011;5213;53.548;9.930;2023-04-24T04:51:33;1.88;;;1.80;;
10335;SDS011;5213;53.548;9.930;2023-04-24T04:54:00;2.20;;;2.00;;
10335;SDS011;5213;53.548;9.930;2023-04-24T04:56:26;2.17;;;1.98;;
10335;SDS011;5213;53.548;9.930;2023-04-24T04:58:52;2.00;;;1.90;;
10335;SDS011;5213;53.548;9.930;2023-04-24T05:01:18;1.90;;;1.80;;
10335;SDS011;5213;53.548;9.930;2023-04-24T05:03:44;2.00;;;1.90;;
10335;SDS011;5213;53.548;9.930;2023-04-24T05:06:10;2.30;;;2.10;;
10335;SDS011;5213;53.548;9.930;2023-04-24T05:08:36;1.95;;;1.85;;
10335;SDS011;5213;53.548;9.930;2023-04-24T05:11:02;2.00;;;1.90;;
10335;SDS011;5213;53.548;9.930;2023-04-24T05:13:28;7.05;;;6.20;;
10335;SDS011;5213;53.548;9.930;2023-04-24T05:15:54;3.20;;;2.90;;
10335;SDS011;5213;53.548;9.930;2023-04-24T05:18:20;1.90;;;1.80;;
10335;SDS011;5213;53.548;9.930;2023-04-24T05:20:46;2.15;;;1.90;;
10335;SDS011;5213;53.548;9.930;2023-04-24T05:23:12;2.90;;;2.70;;
10335;SDS011;5213;53.548;9.930;2023-04-24T05:25:38;3.15;;;2.38;;
10335;SDS011;5213;53.548;9.930;2023-04-24T05:28:05;3.13;;;2.40;;
10335;SDS011;5213;53.548;9.930;2023-04-24T05:30:31;4.97;;;2.58;;
10335;SDS011;5213;53.548;9.930;2023-04-24T05:32:57;2.20;;;2.10;;
10335;SDS011;5213;53.548;9.930;2023-04-24T05:35:23;2.10;;;2.00;;
10335;SDS011;5213;53.548;9.930;2023-04-24T05:37:49;2.83;;;2.22;;
10335;SDS011;5213;53.548;9.930;2023-04-24T05:40:16;2.17;;;1.80;;
10335;SDS011;5213;53.548;9.930;2023-04-24T05:42:42;2.13;;;1.80;;
10335;SDS011;5213;53.548;9.930;2023-04-24T05:45:08;1.80;;;1.70;;
10335;SDS011;5213;53.548;9.930;2023-04-24T05:47:36;1.95;;;1.85;;
10335;SDS011;5213;53.548;9.930;2023-04-24T05:50:02;2.08;;;1.98;;
10335;SDS011;5213;53.548;9.930;2023-04-24T05:52:28;1.98;;;1.60;;
10335;SDS011;5213;53.548;9.930;2023-04-24T05:54:54;2.08;;;1.98;;
10335;SDS011;5213;53.548;9.930;2023-04-24T05:57:21;3.55;;;1.90;;
10335;SDS011;5213;53.548;9.930;2023-04-24T05:59:47;2.25;;;2.15;;
10335;SDS011;5213;53.548;9.930;2023-04-24T06:02:13;1.90;;;1.80;;
10335;SDS011;5213;53.548;9.930;2023-04-24T06:04:39;2.33;;;1.70;;
10335;SDS011;5213;53.548;9.930;2023-04-24T06:07:06;1.92;;;1.83;;
10335;SDS011;5213;53.548;9.930;2023-04-24T06:09:32;2.22;;;2.03;;
10335;SDS011;5213;53.548;9.930;2023-04-24T06:11:58;2.85;;;2.60;;
10335;SDS011;5213;53.548;9.930;2023-04-24T06:14:25;5.25;;;2.42;;
10335;SDS011;5213;53.548;9.930;2023-04-24T06:16:51;3.35;;;2.75;;
10335;SDS011;5213;53.548;9.930;2023-04-24T06:19:17;2.45;;;2.25;;
10335;SDS011;5213;53.548;9.930;2023-04-24T06:21:43;3.38;;;2.53;;
10335;SDS011;5213;53.548;9.930;2023-04-24T06:24:09;2.75;;;2.10;;
10335;SDS011;5213;53.548;9.930;2023-04-24T06:26:35;6.03;;;4.55;;
10335;SDS011;5213;53.548;9.930;2023-04-24T06:29:01;6.57;;;5.43;;
10335;SDS011;5213;53.548;9.930;2023-04-24T06:31:27;4.07;;;3.67;;
10335;SDS011;5213;53.548;9.930;2023-04-24T06:33:53;3.83;;;3.45;;
10335;SDS011;5213;53.548;9.930;2023-04-24T06:36:19;4.47;;;3.30;;
10335;SDS011;5213;53.548;9.930;2023-04-24T06:38:45;4.07;;;2.47;;
10335;SDS011;5213;53.548;9.930;2023-04-24T06:41:11;4.95;;;3.15;;
10335;SDS011;5213;53.548;9.930;2023-04-24T06:43:38;4.55;;;2.60;;
10335;SDS011;5213;53.548;9.930;2023-04-24T06:46:04;3.65;;;2.65;;
10335;SDS011;5213;53.548;9.930;2023-04-24T06:48:30;3.58;;;2.25;;
10335;SDS011;5213;53.548;9.930;2023-04-24T06:50:56;4.03;;;2.47;;
10335;SDS011;5213;53.548;9.930;2023-04-24T06:53:22;3.30;;;2.50;;
10335;SDS011;5213;53.548;9.930;2023-04-24T06:55:48;2.53;;;2.35;;
10335;SDS011;5213;53.548;9.930;2023-04-24T06:58:14;3.33;;;2.40;;
10335;SDS011;5213;53.548;9.930;2023-04-24T07:00:40;2.45;;;2.25;;
10335;SDS011;5213;53.548;9.930;2023-04-24T07:03:07;3.47;;;2.72;;
10335;SDS011;5213;53.548;9.930;2023-04-24T07:05:33;2.65;;;2.45;;
10335;SDS011;5213;53.548;9.930;2023-04-24T07:08:00;3.30;;;2.20;;
10335;SDS011;5213;53.548;9.930;2023-04-24T07:10:26;2.70;;;2.50;;
10335;SDS011;5213;53.548;9.930;2023-04-24T07:12:53;2.67;;;2.33;;
10335;SDS011;5213;53.548;9.930;2023-04-24T07:15:19;4.15;;;2.63;;
10335;SDS011;5213;53.548;9.930;2023-04-24T07:17:45;2.95;;;2.65;;
10335;SDS011;5213;53.548;9.930;2023-04-24T07:20:11;3.47;;;3.17;;
10335;SDS011;5213;53.548;9.930;2023-04-24T07:22:39;3.00;;;2.80;;
10335;SDS011;5213;53.548;9.930;2023-04-24T07:25:05;3.50;;;3.20;;
10335;SDS011;5213;53.548;9.930;2023-04-24T07:27:32;3.22;;;3.03;;
10335;SDS011;5213;53.548;9.930;2023-04-24T07:29:58;3.15;;;2.95;;
10335;SDS011;5213;53.548;9.930;2023-04-24T07:32:24;10.20;;;7.25;;
10335;SDS011;5213;53.548;9.930;2023-04-24T07:34:50;3.22;;;2.97;;
10335;SDS011;5213;53.548;9.930;2023-04-24T07:37:16;3.70;;;3.40;;
10335;SDS011;5213;53.548;9.930;2023-04-24T07:39:42;7.68;;;5.78;;
10335;SDS011;5213;53.548;9.930;2023-04-24T07:42:08;5.78;;;3.10;;
10335;SDS011;5213;53.548;9.930;2023-04-24T07:44:34;3.85;;;3.40;;
10335;SDS011;5213;53.548;9.930;2023-04-24T07:47:01;3.78;;;3.47;;
10335;SDS011;5213;53.548;9.930;2023-04-24T07:49:27;3.95;;;3.65;;
10335;SDS011;5213;53.548;9.930;2023-04-24T07:51:53;4.47;;;3.63;;
10335;SDS011;5213;53.548;9.930;2023-04-24T07:54:19;4.25;;;3.70;;
10335;SDS011;5213;53.548;9.930;2023-04-24T07:56:45;9.82;;;3.97;;
10335;SDS011;5213;53.548;9.930;2023-04-24T07:59:12;4.45;;;4.05;;
10335;SDS011;5213;53.548;9.930;2023-04-24T08:01:38;3.95;;;3.65;;
10335;SDS011;5213;53.548;9.930;2023-04-24T08:04:04;4.00;;;3.70;;
10335;SDS011;5213;53.548;9.930;2023-04-24T08:06:30;4.43;;;4.03;;
10335;SDS011;5213;53.548;9.930;2023-04-24T08:08:56;4.65;;;4.25;;
10335;SDS011;5213;53.548;9.930;2023-04-24T08:11:22;4.75;;;4.35;;
10335;SDS011;5213;53.548;9.930;2023-04-24T08:13:48;4.60;;;4.30;;
10335;SDS011;5213;53.548;9.930;2023-04-24T08:16:14;5.57;;;4.57;;
10335;SDS011;5213;53.548;9.930;2023-04-24T08:18:41;5.80;;;4.57;;
10335;SDS011;5213;53.548;9.930;2023-04-24T08:21:07;5.10;;;4.70;;
10335;SDS011;5213;53.548;9.930;2023-04-24T08:23:33;5.82;;;5.32;;
10335;SDS011;5213;53.548;9.930;2023-04-24T08:25:59;6.25;;;5.30;;
10335;SDS011;5213;53.548;9.930;2023-04-24T08:28:25;5.30;;;4.90;;
10335;SDS011;5213;53.548;9.930;2023-04-24T08:30:51;8.65;;;6.53;;
10335;SDS011;5213;53.548;9.930;2023-04-24T08:33:19;5.55;;;5.05;;
10335;SDS011;5213;53.548;9.930;2023-04-24T08:35:46;4.78;;;4.38;;
10335;SDS011;5213;53.548;9.930;2023-04-24T08:38:12;5.10;;;4.57;;
10335;SDS011;5213;53.548;9.930;2023-04-24T08:40:38;5.75;;;4.93;;
10335;SDS011;5213;53.548;9.930;2023-04-24T08:43:04;4.95;;;4.47;;
10335;SDS011;5213;53.548;9.930;2023-04-24T08:45:31;5.05;;;4.65;;
10335;SDS011;5213;53.548;9.930;2023-04-24T08:47:58;6.38;;;4.55;;
10335;SDS011;5213;53.548;9.930;2023-04-24T08:50:24;7.03;;;5.20;;
10335;SDS011;5213;53.548;9.930;2023-04-24T08:52:51;5.30;;;4.90;;
10335;SDS011;5213;53.548;9.930;2023-04-24T08:55:21;5.25;;;4.95;;
10335;SDS011;5213;53.548;9.930;2023-04-24T08:57:50;5.45;;;5.05;;
10335;SDS011;5213;53.548;9.930;2023-04-24T09:00:18;6.22;;;5.25;;
10335;SDS011;5213;53.548;9.930;2023-04-24T09:02:44;5.53;;;5.03;;
10335;SDS011;5213;53.548;9.930;2023-04-24T09:05:11;6.38;;;5.80;;
10335;SDS011;5213;53.548;9.930;2023-04-24T09:07:38;5.88;;;5.35;;
10335;SDS011;5213;53.548;9.930;2023-04-24T09:10:05;6.95;;;5.60;;
10335;SDS011;5213;53.548;9.930;2023-04-24T09:12:32;6.15;;;5.55;;
10335;SDS011;5213;53.548;9.930;2023-04-24T09:14:59;5.75;;;5.25;;
10335;SDS011;5213;53.548;9.930;2023-04-24T09:17:26;5.95;;;5.13;;
10335;SDS011;5213;53.548;9.930;2023-04-24T09:19:53;5.65;;;4.90;;
10335;SDS011;5213;53.548;9.930;2023-04-24T09:22:19;6.05;;;5.03;;
10335;SDS011;5213;53.548;9.930;2023-04-24T09:24:45;8.18;;;5.03;;
10335;SDS011;5213;53.548;9.930;2023-04-24T09:27:11;5.15;;;4.85;;
10335;SDS011;5213;53.548;9.930;2023-04-24T09:29:38;4.93;;;4.53;;
10335;SDS011;5213;53.548;9.930;2023-04-24T09:32:20;5.05;;;4.68;;
10335;SDS011;5213;53.548;9.930;2023-04-24T09:34:47;5.20;;;4.60;;
10335;SDS011;5213;53.548;9.930;2023-04-24T09:37:29;5.45;;;4.95;;
10335;SDS011;5213;53.548;9.930;2023-04-24T09:40:17;5.85;;;5.35;;
10335;SDS011;5213;53.548;9.930;2023-04-24T09:42:45;6.57;;;5.93;;
10335;SDS011;5213;53.548;9.930;2023-04-24T09:45:11;6.82;;;6.18;;
10335;SDS011;5213;53.548;9.930;2023-04-24T09:47:38;6.82;;;6.10;;
10335;SDS011;5213;53.548;9.930;2023-04-24T09:50:17;7.68;;;6.20;;
10335;SDS011;5213;53.548;9.930;2023-04-24T09:52:44;7.15;;;6.45;;
10335;SDS011;5213;53.548;9.930;2023-04-24T09:55:10;6.95;;;6.28;;
10335;SDS011;5213;53.548;9.930;2023-04-24T09:57:46;7.35;;;6.38;;
10335;SDS011;5213;53.548;9.930;2023-04-24T10:00:12;7.03;;;6.30;;
10335;SDS011;5213;53.548;9.930;2023-04-24T10:02:38;8.48;;;7.15;;
10335;SDS011;5213;53.548;9.930;2023-04-24T10:05:04;8.65;;;7.70;;
10335;SDS011;5213;53.548;9.930;2023-04-24T10:07:32;9.98;;;7.40;;
10335;SDS011;5213;53.548;9.930;2023-04-24T10:09:58;7.93;;;7.07;;
10335;SDS011;5213;53.548;9.930;2023-04-24T10:12:25;8.65;;;7.75;;
10335;SDS011;5213;53.548;9.930;2023-04-24T10:14:52;11.43;;;8.23;;
10335;SDS011;5213;53.548;9.930;2023-04-24T10:17:18;9.30;;;7.60;;
10335;SDS011;5213;53.548;9.930;2023-04-24T10:19:53;9.05;;;7.93;;
10335;SDS011;5213;53.548;9.930;2023-04-24T10:22:28;8.95;;;8.05;;
10335;SDS011;5213;53.548;9.930;2023-04-24T10:24:55;8.88;;;7.93;;
10335;SDS011;5213;53.548;9.930;2023-04-24T10:27:21;9.27;;;8.38;;
10335;SDS011;5213;53.548;9.930;2023-04-24T10:29:47;9.50;;;8.38;;
10335;SDS011;5213;53.548;9.930;2023-04-24T10:32:14;10.38;;;9.38;;
10335;SDS011;5213;53.548;9.930;2023-04-24T10:34:40;11.23;;;9.32;;
10335;SDS011;5213;53.548;9.930;2023-04-24T10:37:06;10.05;;;9.10;;
10335;SDS011;5213;53.548;9.930;2023-04-24T10:39:32;9.98;;;9.00;;
10335;SDS011;5213;53.548;9.930;2023-04-24T10:42:00;9.57;;;8.68;;
10335;SDS011;5213;53.548;9.930;2023-04-24T10:44:27;13.40;;;9.70;;
10335;SDS011;5213;53.548;9.930;2023-04-24T10:47:01;10.05;;;9.05;;
10335;SDS011;5213;53.548;9.930;2023-04-24T10:49:28;10.13;;;9.05;;
10335;SDS011;5213;53.548;9.930;2023-04-24T10:51:54;15.15;;;9.98;;
10335;SDS011;5213;53.548;9.930;2023-04-24T10:54:26;9.82;;;8.13;;
10335;SDS011;5213;53.548;9.930;2023-04-24T10:56:53;8.77;;;7.97;;
10335;SDS011;5213;53.548;9.930;2023-04-24T10:59:34;10.65;;;9.05;;
10335;SDS011;5213;53.548;9.930;2023-04-24T11:02:02;12.88;;;9.70;;
10335;SDS011;5213;53.548;9.930;2023-04-24T11:04:32;11.73;;;9.45;;
10335;SDS011;5213;53.548;9.930;2023-04-24T11:07:00;9.77;;;8.27;;
10335;SDS011;5213;53.548;9.930;2023-04-24T11:09:26;9.90;;;8.82;;
10335;SDS011;5213;53.548;9.930;2023-04-24T11:12:02;11.00;;;8.52;;
10335;SDS011;5213;53.548;9.930;2023-04-24T11:14:29;9.93;;;8.90;;
10335;SDS011;5213;53.548;9.930;2023-04-24T11:16:55;11.15;;;8.50;;
10335;SDS011;5213;53.548;9.930;2023-04-24T11:19:25;10.32;;;7.90;;
10335;SDS011;5213;53.548;9.930;2023-04-24T11:22:00;8.52;;;7.30;;
10335;SDS011;5213;53.548;9.930;2023-04-24T11:24:27;12.57;;;8.10;;
10335;SDS011;5213;53.548;9.930;2023-04-24T11:27:16;8.98;;;8.07;;
10335;SDS011;5213;53.548;9.930;2023-04-24T11:29:41;8.70;;;7.90;;
10335;SDS011;5213;53.548;9.930;2023-04-24T11:32:24;10.75;;;8.68;;
10335;SDS011;5213;53.548;9.930;2023-04-24T11:34:55;10.23;;;9.25;;
10335;SDS011;5213;53.548;9.930;2023-04-24T11:37:22;8.70;;;7.75;;
10335;SDS011;5213;53.548;9.930;2023-04-24T11:39:57;8.77;;;7.88;;
10335;SDS011;5213;53.548;9.930;2023-04-24T11:42:23;8.25;;;7.50;;
10335;SDS011;5213;53.548;9.930;2023-04-24T11:44:51;10.05;;;7.97;;
10335;SDS011;5213;53.548;9.930;2023-04-24T11:47:18;8.95;;;6.63;;
10335;SDS011;5213;53.548;9.930;2023-04-24T11:49:44;8.32;;;7.40;;
10335;SDS011;5213;53.548;9.930;2023-04-24T11:52:10;8.20;;;7.40;;
10335;SDS011;5213;53.548;9.930;2023-04-24T11:54:36;7.20;;;6.60;;
10335;SDS011;5213;53.548;9.930;2023-04-24T11:57:05;6.50;;;5.85;;
10335;SDS011;5213;53.548;9.930;2023-04-24T11:59:40;7.53;;;6.80;;
10335;SDS011;5213;53.548;9.930;2023-04-24T12:02:06;6.95;;;6.30;;
10335;SDS011;5213;53.548;9.930;2023-04-24T12:04:39;7.28;;;6.57;;
10335;SDS011;5213;53.548;9.930;2023-04-24T12:07:06;7.47;;;6.85;;
10335;SDS011;5213;53.548;9.930;2023-04-24T12:10:06;7.20;;;6.50;;
10335;SDS011;5213;53.548;9.930;2023-04-24T12:12:26;8.57;;;6.47;;
10335;SDS011;5213;53.548;9.930;2023-04-24T12:14:53;7.75;;;7.05;;
10335;SDS011;5213;53.548;9.930;2023-04-24T12:19:52;6.40;;;5.90;;
10335;SDS011;5213;53.548;9.930;2023-04-24T12:22:22;6.78;;;6.03;;
10335;SDS011;5213;53.548;9.930;2023-04-24T12:25:01;6.57;;;6.07;;
10335;SDS011;5213;53.548;9.930;2023-04-24T12:27:29;7.32;;;6.57;;
10335;SDS011;5213;53.548;9.930;2023-04-24T12:29:57;8.60;;;7.00;;
10335;SDS011;5213;53.548;9.930;2023-04-24T12:32:24;7.22;;;6.38;;
10335;SDS011;5213;53.548;9.930;2023-04-24T12:34:50;8.73;;;7.30;;
10335;SDS011;5213;53.548;9.930;2023-04-24T12:37:17;7.40;;;6.70;;
10335;SDS011;5213;53.548;9.930;2023-04-24T12:39:59;7.35;;;6.70;;
10335;SDS011;5213;53.548;9.930;2023-04-24T12:42:29;7.95;;;6.70;;
10335;SDS011;5213;53.548;9.930;2023-04-24T12:44:56;7.65;;;6.95;;
10335;SDS011;5213;53.548;9.930;2023-04-24T12:47:23;7.20;;;6.50;;
10335;SDS011;5213;53.548;9.930;2023-04-24T12:49:50;8.07;;;7.38;;
10335;SDS011;5213;53.548;9.930;2023-04-24T12:52:17;8.35;;;7.10;;
10335;SDS011;5213;53.548;9.930;2023-04-24T12:54:45;7.50;;;6.80;;
10335;SDS011;5213;53.548;9.930;2023-04-24T12:57:11;7.78;;;7.05;;
10335;SDS011;5213;53.548;9.930;2023-04-24T12:59:37;7.47;;;6.78;;
10335;SDS011;5213;53.548;9.930;2023-04-24T13:02:04;7.10;;;6.40;;
10335;SDS011;5213;53.548;9.930;2023-04-24T13:04:30;7.10;;;6.50;;
10335;SDS011;5213;53.548;9.930;2023-04-24T13:06:57;6.78;;;6.18;;
10335;SDS011;5213;53.548;9.930;2023-04-24T13:09:23;6.90;;;6.30;;
10335;SDS011;5213;53.548;9.930;2023-04-24T13:11:49;6.55;;;5.85;;
10335;SDS011;5213;53.548;9.930;2023-04-24T13:14:15;7.43;;;6.25;;
10335;SDS011;5213;53.548;9.930;2023-04-24T13:16:41;6.57;;;5.90;;
10335;SDS011;5213;53.548;9.930;2023-04-24T13:19:07;6.45;;;5.85;;
10335;SDS011;5213;53.548;9.930;2023-04-24T13:21:33;6.60;;;6.00;;
10335;SDS011;5213;53.548;9.930;2023-04-24T13:23:59;6.47;;;5.88;;
10335;SDS011;5213;53.548;9.930;2023-04-24T13:26:26;6.65;;;5.93;;
10335;SDS011;5213;53.548;9.930;2023-04-24T13:28:52;6.95;;;5.90;;
10335;SDS011;5213;53.548;9.930;2023-04-24T13:31:18;6.28;;;5.78;;
10335;SDS011;5213;53.548;9.930;2023-04-24T13:33:44;6.18;;;5.63;;
10335;SDS011;5213;53.548;9.930;2023-04-24T13:36:10;6.13;;;5.63;;
10335;SDS011;5213;53.548;9.930;2023-04-24T13:38:36;6.53;;;6.03;;
10335;SDS011;5213;53.548;9.930;2023-04-24T13:41:02;6.60;;;5.93;;
10335;SDS011;5213;53.548;9.930;2023-04-24T13:43:28;6.70;;;6.03;;
10335;SDS011;5213;53.548;9.930;2023-04-24T13:45:54;5.88;;;5.38;;
10335;SDS011;5213;53.548;9.930;2023-04-24T13:48:20;5.82;;;5.28;;
10335;SDS011;5213;53.548;9.930;2023-04-24T13:50:46;6.47;;;5.88;;
10335;SDS011;5213;53.548;9.930;2023-04-24T13:53:14;5.82;;;5.32;;
10335;SDS011;5213;53.548;9.930;2023-04-24T13:55:40;5.32;;;4.90;;
10335;SDS011;5213;53.548;9.930;2023-04-24T13:58:06;5.47;;;5.00;;
10335;SDS011;5213;53.548;9.930;2023-04-24T14:00:32;5.78;;;4.97;;
10335;SDS011;5213;53.548;9.930;2023-04-24T14:02:58;5.40;;;4.90;;
10335;SDS011;5213;53.548;9.930;2023-04-24T14:05:25;5.18;;;4.78;;
10335;SDS011;5213;53.548;9.930;2023-04-24T14:07:51;5.25;;;4.85;;
10335;SDS011;5213;53.548;9.930;2023-04-24T14:10:17;4.85;;;4.40;;
10335;SDS011;5213;53.548;9.930;2023-04-24T14:12:43;4.72;;;4.40;;
10335;SDS011;5213;53.548;9.930;2023-04-24T14:15:09;5.10;;;4.60;;
10335;SDS011;5213;53.548;9.930;2023-04-24T14:17:38;4.80;;;4.50;;
10335;SDS011;5213;53.548;9.930;2023-04-24T14:20:04;5.00;;;4.60;;
10335;SDS011;5213;53.548;9.930;2023-04-24T14:22:30;5.28;;;4.88;;
10335;SDS011;5213;53.548;9.930;2023-04-24T14:24:56;6.00;;;5.50;;
10335;SDS011;5213;53.548;9.930;2023-04-24T14:27:22;6.20;;;5.70;;
10335;SDS011;5213;53.548;9.930;2023-04-24T14:29:48;5.78;;;5.38;;
10335;SDS011;5213;53.548;9.930;2023-04-24T14:32:14;6.18;;;5.68;;
10335;SDS011;5213;53.548;9.930;2023-04-24T14:34:40;5.70;;;5.20;;
10335;SDS011;5213;53.548;9.930;2023-04-24T14:37:07;6.55;;;6.05;;
10335;SDS011;5213;53.548;9.930;2023-04-24T14:39:33;7.15;;;6.55;;
10335;SDS011;5213;53.548;9.930;2023-04-24T14:41:59;7.00;;;6.40;;
10335;SDS011;5213;53.548;9.930;2023-04-24T14:44:29;6.93;;;6.40;;
10335;SDS011;5213;53.548;9.930;2023-04-24T14:46:54;7.10;;;6.47;;
10335;SDS011;5213;53.548;9.930;2023-04-24T14:49:20;7.15;;;6.55;;
10335;SDS011;5213;53.548;9.930;2023-04-24T14:51:46;9.25;;;6.75;;
10335;SDS011;5213;53.548;9.930;2023-04-24T14:54:12;7.80;;;7.10;;
10335;SDS011;5213;53.548;9.930;2023-04-24T14:56:38;7.75;;;7.05;;
10335;SDS011;5213;53.548;9.930;2023-04-24T14:59:05;8.27;;;7.47;;
10335;SDS011;5213;53.548;9.930;2023-04-24T15:01:32;7.93;;;7.28;;